PWSweather.com
Personal Weather Stations
Station Observations
WH6KOWX
Next To Mccormick Park, St Helens, OR 97051-2144

Next To Mccormick ParkSt Helens, OR 97051-2144

Lat: 45.85439, Lon: -122.81898

Elevation: 79

Station Type: DAVIS Vantage Pro2 PLUS (6163)

http://www.wh6ko.net/wxhome.html

Latest ConditionsUpdated 6:40:15 AM PDT Monday, Jul 6, 2015
Currently Today's Max Today's Min Today's Average
Temperature 59.0°F15.0°C 65.6°F18.7°C 57.7°F14.3°C 60.5°F15.8°C
Dew Point 56.4°F13.6°C 57.1°F13.9°C 55.1°F12.8°C 56.0°F13.3°C
Winds 1.0 mph NNE1.6 kmh NNE 2.0 mph NE3.2 kmh NE - 0.1 mph 0.2 kmh
Wind Gusts 2.0 mph3.2 kmh 4.0 mph6.4 kmh - -
Humidity 91% 92% 74% 85%
Pressure 29.95 in1014.2 mb 29.95 in1014.2 mb 29.86 in1011.2 mb -
Hour Temp Dew Point Humidity Winds Wind Gusts Pressure Precip Precip Rate Daily Precip Total
06:40 AM 59.0°F15.0°C 56.4°F13.6°C 91% 1.0 mph NNE1.6 kmh NNE 2.0 mph3.2 kmh 29.95 in1014.2 mb 0.00 in0.0 mm 0.00 in0.0 mm 0.00 in0.0 mm
06:20 AM 58.5°F14.7°C 55.9°F13.3°C 91% Calm Calm 1.0 mph1.6 kmh 29.95 in1014.2 mb 0.00 in0.0 mm 0.00 in0.0 mm 0.00 in0.0 mm
06:00 AM 57.7°F14.3°C 55.4°F13.0°C 92% Calm Calm 2.0 mph3.2 kmh 29.94 in1013.9 mb 0.00 in0.0 mm 0.00 in0.0 mm 0.00 in0.0 mm
05:40 AM 57.8°F14.3°C 55.5°F13.1°C 92% Calm Calm -- 29.94 in1013.9 mb 0.00 in0.0 mm 0.00 in0.0 mm 0.00 in0.0 mm
05:20 AM 58.0°F14.4°C 55.1°F12.8°C 90% Calm Calm 2.0 mph3.2 kmh 29.94 in1013.9 mb 0.00 in0.0 mm 0.00 in0.0 mm 0.00 in0.0 mm
05:00 AM 58.5°F14.7°C 55.3°F12.9°C 89% Calm Calm 2.0 mph3.2 kmh 29.93 in1013.5 mb 0.00 in0.0 mm 0.00 in0.0 mm 0.00 in0.0 mm
04:40 AM 58.4°F14.7°C 55.5°F13.1°C 90% Calm Calm 1.0 mph1.6 kmh 29.92 in1013.2 mb 0.00 in0.0 mm 0.00 in0.0 mm 0.00 in0.0 mm
04:20 AM 58.9°F14.9°C 55.7°F13.2°C 89% Calm Calm -- 29.92 in1013.2 mb 0.00 in0.0 mm 0.00 in0.0 mm 0.00 in0.0 mm
04:00 AM 59.0°F15.0°C 55.5°F13.1°C 88% Calm Calm 1.0 mph1.6 kmh 29.92 in1013.2 mb 0.00 in0.0 mm 0.00 in0.0 mm 0.00 in0.0 mm
03:40 AM 59.0°F15.0°C 55.8°F13.2°C 89% Calm Calm -- 29.91 in1012.9 mb 0.00 in0.0 mm 0.00 in0.0 mm 0.00 in0.0 mm
03:20 AM 59.8°F15.4°C 55.6°F13.1°C 86% Calm Calm -- 29.91 in1012.9 mb 0.00 in0.0 mm 0.00 in0.0 mm 0.00 in0.0 mm
03:00 AM 59.9°F15.5°C 55.7°F13.2°C 86% Calm Calm -- 29.90 in1012.5 mb 0.00 in0.0 mm 0.00 in0.0 mm 0.00 in0.0 mm
02:40 AM 60.3°F15.7°C 55.8°F13.2°C 85% Calm Calm -- 29.89 in1012.2 mb 0.00 in0.0 mm 0.00 in0.0 mm 0.00 in0.0 mm
02:20 AM 60.9°F16.1°C 55.7°F13.2°C 83% Calm Calm -- 29.89 in1012.2 mb 0.00 in0.0 mm 0.00 in0.0 mm 0.00 in0.0 mm
02:00 AM 61.9°F16.6°C 56.4°F13.6°C 82% Calm Calm 3.0 mph4.8 kmh 29.89 in1012.2 mb 0.00 in0.0 mm 0.00 in0.0 mm 0.00 in0.0 mm
01:40 AM 62.4°F16.9°C 56.2°F13.4°C 80% Calm Calm 3.0 mph4.8 kmh 29.88 in1011.9 mb 0.00 in0.0 mm 0.00 in0.0 mm 0.00 in0.0 mm
01:20 AM 62.3°F16.8°C 56.4°F13.6°C 81% Calm Calm 3.0 mph4.8 kmh 29.88 in1011.9 mb 0.00 in0.0 mm 0.00 in0.0 mm 0.00 in0.0 mm
01:00 AM 63.4°F17.4°C 56.8°F13.8°C 79% Calm Calm 4.0 mph6.4 kmh 29.88 in1011.9 mb 0.00 in0.0 mm 0.00 in0.0 mm 0.00 in0.0 mm
12:40 AM 63.9°F17.7°C 56.6°F13.7°C 77% 2.0 mph NE3.2 kmh NE 4.0 mph6.4 kmh 29.87 in1011.5 mb 0.00 in0.0 mm 0.00 in0.0 mm 0.00 in0.0 mm
12:20 AM 64.8°F18.2°C 57.1°F13.9°C 76% Calm Calm 3.0 mph4.8 kmh 29.86 in1011.2 mb 0.00 in0.0 mm 0.00 in0.0 mm 0.00 in0.0 mm
12:00 AM 65.6°F18.7°C 57.1°F13.9°C 74% Calm Calm 3.0 mph4.8 kmh 29.86 in1011.2 mb 0.00 in0.0 mm 0.00 in0.0 mm 0.00 in0.0 mm